Archival Weather

Chicago O'Hare International

Chicago, Illinois (KORD)

Report from: Tuesday, December 6, 2022 4:51 PM CST
Current time: Saturday, February 4, 2023 11:30 PM CST

Current weather
Weather history
Weather forecast

Present weatherMist
Temperature5.6°C (42.1°F)
Wind chill2.8°C (37.1°F)
Dew point2.8°C (37.0°F)
Winds 7 kts (3.6 m/s, 8.1 mph) East (80°)
Visibility5 mi. (8 km)
Clouds Ceiling: Overcast 1,000 ft. (305 m)
Altimeter30.01 in.Hg (1016 mB)
Relative humidity82 %
Density altitude-1,126 ft. (-343 m)
Sea-level pressure101.7 kPa (1017 mB, 30.02 in.Hg)
Remarks Automated weather observing station with precipitation discriminator
Flight conditions Marginal Visual Meteorological Conditions
Raw dataKORD 062251Z 08007KT 5SM BR OVC010 06/03 A3001 RMK AO2 SLP166 T00560028
An unhandled exception has occurred. See browser dev tools for details. Reload 🗙